Time;durP1;ratioP1;P1;durP2;ratioP2;P2;SDS_P1;SDS_P2;PMS_P1;PMS_P2;Temp;Humidity;BMP_temperature;BMP_pressure;BME280_temperature;BME280_humidity;BME280_pressure;Samples;Min_cycle;Max_cycle;Signal;HPM_P1;HPM_P2
2023/08/13 00:01:45;;;;;;;16.3;10.4;;;;;;;15.77;85.01;;;;;
2023/08/13 00:11:45;;;;;;;16.3;10.4;;;;;;;15.66;87.06;;;;;
2023/08/13 00:22:45;;;;;;;15.6;11.8;;;;;;;15.67;86.59;;;;;
2023/08/13 00:33:45;;;;;;;15.6;11.8;;;;;;;15.54;88.19;;;;;
2023/08/13 00:43:45;;;;;;;15.6;11.8;;;;;;;15.6;87.83;;;;;
2023/08/13 00:53:45;;;;;;;18.4;13.8;;;;;;;15.54;88.16;;;;;
2023/08/13 01:04:45;;;;;;;18.4;13.8;;;;;;;15.48;87.43;;;;;
2023/08/13 01:14:45;;;;;;;12;9.6;;;;;;;15.38;86.64;;;;;
2023/08/13 01:24:45;;;;;;;12;9.6;;;;;;;15.38;86.42;;;;;
2023/08/13 01:35:45;;;;;;;12;9.6;;;;;;;15.29;86.19;;;;;
2023/08/13 01:46:45;;;;;;;10.3;8.1;;;;;;;15.11;87.88;;;;;
2023/08/13 01:56:45;;;;;;;10.3;8.1;;;;;;;15.26;87.74;;;;;
2023/08/13 02:06:45;;;;;;;10.3;8.1;;;;;;;15.5;87.79;;;;;
2023/08/13 02:16:45;;;;;;;10;6.8;;;;;;;15.73;87.53;;;;;
2023/08/13 02:27:45;;;;;;;10;6.8;;;;;;;15.95;87.11;;;;;
2023/08/13 02:38:45;;;;;;;10;6.8;;;;;;;16.11;86.44;;;;;
2023/08/13 02:49:45;;;;;;;8.9;6.9;;;;;;;16.03;87.32;;;;;
2023/08/13 02:59:45;;;;;;;8.9;6.9;;;;;;;16.03;86.82;;;;;
2023/08/13 03:10:45;;;;;;;8.9;6.9;;;;;;;15.95;87.14;;;;;
2023/08/13 03:21:45;;;;;;;9.3;6.9;;;;;;;15.66;87.27;;;;;
2023/08/13 03:31:47;;;;;;;9.3;6.9;;;;;;;15.41;87.51;;;;;
2023/08/13 03:42:46;;;;;;;9.3;6.9;;;;;;;15.33;87.19;;;;;
2023/08/13 03:53:46;;;;;;;11.4;7.9;;;;;;;15.24;86.94;;;;;
2023/08/13 04:04:46;;;;;;;11.4;7.9;;;;;;;15.2;87.59;;;;;
2023/08/13 04:14:46;;;;;;;10.7;7.3;;;;;;;15.34;87.46;;;;;
2023/08/13 04:24:50;;;;;;;10.7;7.3;;;;;;;15.71;88.02;;;;;
2023/08/13 04:34:46;;;;;;;10.7;7.3;;;;;;;16.25;88.06;;;;;
2023/08/13 04:45:46;;;;;;;9.2;6.4;;;;;;;16.84;87.57;;;;;
2023/08/13 04:55:46;;;;;;;9.2;6.4;;;;;;;17.25;86;;;;;
2023/08/13 05:05:46;;;;;;;9.2;6.4;;;;;;;17.7;85.61;;;;;
2023/08/13 05:16:46;;;;;;;9.7;6.7;;;;;;;18.19;84.35;;;;;
2023/08/13 05:26:46;;;;;;;9.7;6.7;;;;;;;18.46;82.8;;;;;
2023/08/13 05:37:46;;;;;;;9.7;6.7;;;;;;;18.86;82.05;;;;;
2023/08/13 05:48:46;;;;;;;9;6;;;;;;;19.34;80.41;;;;;
2023/08/13 05:58:46;;;;;;;9;6;;;;;;;19.76;80.01;;;;;
2023/08/13 06:09:46;;;;;;;9;6;;;;;;;20.47;75.94;;;;;
2023/08/13 06:20:46;;;;;;;8.2;5.7;;;;;;;21.06;73.62;;;;;
2023/08/13 06:30:46;;;;;;;8.2;5.7;;;;;;;21.53;72.52;;;;;
2023/08/13 06:41:46;;;;;;;8.2;5.7;;;;;;;22.19;71.82;;;;;
2023/08/13 06:52:47;;;;;;;5.5;3.2;;;;;;;22.69;67.85;;;;;
2023/08/13 07:03:47;;;;;;;5.5;3.2;;;;;;;23.49;67.87;;;;;
2023/08/13 07:13:47;;;;;;;5.5;3.2;;;;;;;23.99;65.32;;;;;
2023/08/13 07:23:47;;;;;;;7;3.2;;;;;;;24.51;64.06;;;;;
2023/08/13 07:34:47;;;;;;;7;3.2;;;;;;;25.07;61.85;;;;;
2023/08/13 07:44:47;;;;;;;5;2.8;;;;;;;25.46;60.45;;;;;
2023/08/13 07:55:49;;;;;;;5;2.8;;;;;;;26.32;60.23;;;;;
2023/08/13 08:06:47;;;;;;;5;2.8;;;;;;;26.63;55.64;;;;;
2023/08/13 08:17:46;;;;;;;4.3;2.1;;;;;;;27.32;53.32;;;;;
2023/08/13 08:28:46;;;;;;;4.3;2.1;;;;;;;27.52;52.4;;;;;
2023/08/13 08:39:47;;;;;;;4.3;2.1;;;;;;;28.02;51.74;;;;;
2023/08/13 08:49:46;;;;;;;3.5;1.9;;;;;;;27.81;49.54;;;;;
2023/08/13 09:00:47;;;;;;;3.5;1.9;;;;;;;27.95;47.53;;;;;
2023/08/13 09:10:46;;;;;;;3.5;1.9;;;;;;;28.26;49.1;;;;;
2023/08/13 09:20:47;;;;;;;5.2;2.4;;;;;;;28.63;49.32;;;;;
2023/08/13 09:31:46;;;;;;;5.2;2.4;;;;;;;28.43;47.96;;;;;
2023/08/13 09:42:46;;;;;;;5.2;2.4;;;;;;;28.06;48.89;;;;;
2023/08/13 09:52:47;;;;;;;5.6;2.8;;;;;;;28.01;50.05;;;;;
2023/08/13 10:02:47;;;;;;;5.6;2.8;;;;;;;27.96;48.28;;;;;
2023/08/13 10:12:47;;;;;;;5.6;2.8;;;;;;;28.06;49.72;;;;;
2023/08/13 10:23:46;;;;;;;6;2.4;;;;;;;28.47;47.51;;;;;
2023/08/13 10:33:46;;;;;;;6;2.4;;;;;;;28.34;48.25;;;;;
2023/08/13 10:44:47;;;;;;;3.8;1.8;;;;;;;28.38;48.4;;;;;
2023/08/13 10:55:47;;;;;;;3.8;1.8;;;;;;;28.23;44.9;;;;;
2023/08/13 11:06:46;;;;;;;3.8;1.8;;;;;;;28.63;45.75;;;;;
2023/08/13 11:17:47;;;;;;;4.1;2.2;;;;;;;28.69;46.43;;;;;
2023/08/13 11:27:47;;;;;;;4.1;2.2;;;;;;;28.85;48.39;;;;;
2023/08/13 11:38:47;;;;;;;4.1;2.2;;;;;;;28.95;48.37;;;;;
2023/08/13 11:48:47;;;;;;;5.1;2.5;;;;;;;29.37;47.28;;;;;
2023/08/13 11:58:47;;;;;;;5.1;2.5;;;;;;;29.44;47.42;;;;;
2023/08/13 12:09:47;;;;;;;5.1;2.5;;;;;;;29.65;45.93;;;;;
2023/08/13 12:20:46;;;;;;;7.5;2.8;;;;;;;29.73;45.61;;;;;
2023/08/13 12:31:47;;;;;;;7.5;2.8;;;;;;;29.75;45.7;;;;;
2023/08/13 12:42:47;;;;;;;7.5;2.8;;;;;;;29.76;46.29;;;;;
2023/08/13 12:52:46;;;;;;;4.8;2.3;;;;;;;29.9;45.34;;;;;
2023/08/13 13:02:47;;;;;;;4.8;2.3;;;;;;;29.58;44.5;;;;;
2023/08/13 13:12:47;;;;;;;4.8;2.3;;;;;;;29.9;46.37;;;;;
2023/08/13 13:23:47;;;;;;;4.1;2;;;;;;;30.07;48.02;;;;;
2023/08/13 13:34:47;;;;;;;4.1;2;;;;;;;30.66;45.46;;;;;
2023/08/13 13:45:46;;;;;;;4.6;2.5;;;;;;;30.89;43.89;;;;;
2023/08/13 13:55:47;;;;;;;4.6;2.5;;;;;;;30.86;43.03;;;;;
2023/08/13 14:05:47;;;;;;;4.6;2.5;;;;;;;30.99;42.81;;;;;
2023/08/13 14:16:47;;;;;;;4.5;2.2;;;;;;;31.22;42.87;;;;;
2023/08/13 14:27:47;;;;;;;4.5;2.2;;;;;;;31.41;43.37;;;;;
2023/08/13 14:38:47;;;;;;;4.5;2.2;;;;;;;31.82;43.58;;;;;
2023/08/13 14:48:47;;;;;;;4;2.6;;;;;;;31.79;42.46;;;;;
2023/08/13 14:58:47;;;;;;;4;2.6;;;;;;;32.11;41.11;;;;;
2023/08/13 15:09:47;;;;;;;4;2.6;;;;;;;31.92;42.48;;;;;
2023/08/13 15:20:47;;;;;;;5;2.2;;;;;;;33.13;38.63;;;;;
2023/08/13 15:31:47;;;;;;;5;2.2;;;;;;;35.7;34.44;;;;;
2023/08/13 15:42:47;;;;;;;5;2.2;;;;;;;36.94;33.35;;;;;
2023/08/13 15:52:50;;;;;;;6.5;2.8;;;;;;;38.04;31.43;;;;;
2023/08/13 16:03:47;;;;;;;6.5;2.8;;;;;;;36.82;32.56;;;;;
2023/08/13 16:13:47;;;;;;;6.5;2.8;;;;;;;36.44;33.88;;;;;
2023/08/13 16:23:47;;;;;;;5.8;2.1;;;;;;;34.87;35.58;;;;;
2023/08/13 16:33:47;;;;;;;5.8;2.1;;;;;;;32.71;39.41;;;;;
2023/08/13 16:44:47;;;;;;;5.8;2.1;;;;;;;31.61;42.27;;;;;
2023/08/13 16:55:47;;;;;;;4.7;2.2;;;;;;;30.68;48.51;;;;;
2023/08/13 17:05:47;;;;;;;4.7;2.2;;;;;;;29.8;50.88;;;;;
2023/08/13 17:16:47;;;;;;;6.8;3;;;;;;;28.77;52.09;;;;;
2023/08/13 17:26:47;;;;;;;6.8;3;;;;;;;28.05;54.24;;;;;
2023/08/13 17:37:48;;;;;;;6.8;3;;;;;;;27.32;56.37;;;;;
2023/08/13 17:47:47;;;;;;;9;6.1;;;;;;;26.54;58.41;;;;;
2023/08/13 17:57:47;;;;;;;9;6.1;;;;;;;25.85;59.88;;;;;
2023/08/13 18:08:47;;;;;;;9;6.1;;;;;;;25.2;63.38;;;;;
2023/08/13 18:19:47;;;;;;;14.6;10.3;;;;;;;24.46;67.23;;;;;
2023/08/13 18:29:47;;;;;;;14.6;10.3;;;;;;;24;69.19;;;;;
2023/08/13 18:40:47;;;;;;;14.6;10.3;;;;;;;23.52;69.63;;;;;
2023/08/13 18:50:47;;;;;;;10.5;6.7;;;;;;;23.16;70.18;;;;;
2023/08/13 19:01:47;;;;;;;10.5;6.7;;;;;;;22.77;70.28;;;;;
2023/08/13 19:11:47;;;;;;;10.5;6.7;;;;;;;22.5;70.58;;;;;
2023/08/13 19:22:47;;;;;;;18.7;14.1;;;;;;;22.23;70.68;;;;;
2023/08/13 19:33:47;;;;;;;18.7;14.1;;;;;;;21.95;71.45;;;;;
2023/08/13 19:43:47;;;;;;;18.7;14.1;;;;;;;21.76;72.38;;;;;
2023/08/13 19:54:47;;;;;;;12.6;8.2;;;;;;;21.7;72.25;;;;;
2023/08/13 20:05:47;;;;;;;12.6;8.2;;;;;;;21.5;72.38;;;;;
2023/08/13 20:15:47;;;;;;;10.2;6.8;;;;;;;21.33;73.38;;;;;
2023/08/13 20:25:47;;;;;;;10.2;6.8;;;;;;;21.11;74.38;;;;;
2023/08/13 20:36:47;;;;;;;10.2;6.8;;;;;;;21.02;75.48;;;;;
2023/08/13 20:46:47;;;;;;;8.8;5.7;;;;;;;21.06;75.44;;;;;
2023/08/13 20:57:47;;;;;;;8.8;5.7;;;;;;;21.02;75.8;;;;;
2023/08/13 21:08:47;;;;;;;8.8;5.7;;;;;;;21.04;76.79;;;;;
2023/08/13 21:19:47;;;;;;;10.6;5.9;;;;;;;21.11;78.04;;;;;
2023/08/13 21:29:47;;;;;;;10.6;5.9;;;;;;;21.23;77.58;;;;;
2023/08/13 21:39:47;;;;;;;10.6;5.9;;;;;;;21.38;77.61;;;;;
2023/08/13 21:49:47;;;;;;;8.8;6.5;;;;;;;21.5;77.66;;;;;
2023/08/13 21:59:47;;;;;;;8.8;6.5;;;;;;;21.58;77.24;;;;;
2023/08/13 22:10:47;;;;;;;8.8;6.5;;;;;;;21.6;78;;;;;
2023/08/13 22:21:47;;;;;;;9.4;6.3;;;;;;;21.65;77.98;;;;;
2023/08/13 22:32:47;;;;;;;9.4;6.3;;;;;;;21.69;78.12;;;;;
2023/08/13 22:42:47;;;;;;;9.4;6.3;;;;;;;21.72;77.46;;;;;
2023/08/13 22:53:47;;;;;;;7.7;5.1;;;;;;;21.92;77.19;;;;;
2023/08/13 23:03:47;;;;;;;7.7;5.1;;;;;;;21.87;78.01;;;;;
2023/08/13 23:13:47;;;;;;;7.7;5.1;;;;;;;21.66;77.93;;;;;
2023/08/13 23:23:47;;;;;;;9.8;6;;;;;;;21.52;78.76;;;;;
2023/08/13 23:34:47;;;;;;;9.8;6;;;;;;;21.02;80.46;;;;;
2023/08/13 23:44:47;;;;;;;9.8;6;;;;;;;20.82;79.56;;;;;
2023/08/13 23:54:47;;;;;;;11.7;6;;;;;;;20.53;82;;;;;
